createdAt,value
2019-02-22T00:00:21.587Z,85.76
2019-02-22T00:02:53.809Z,85.79
2019-02-22T00:05:24.387Z,85.70
2019-02-22T00:07:55.001Z,85.79
2019-02-22T00:10:25.733Z,85.95
2019-02-22T00:12:56.345Z,85.90
2019-02-22T00:15:28.008Z,86.13
2019-02-22T00:17:58.681Z,85.79
2019-02-22T00:20:29.338Z,85.91
2019-02-22T00:22:59.737Z,85.68
2019-02-22T00:25:30.179Z,85.83
2019-02-22T00:28:00.574Z,85.64
2019-02-22T00:30:31.027Z,85.82
2019-02-22T00:33:01.424Z,85.76
2019-02-22T00:35:31.831Z,85.81
2019-02-22T00:38:02.122Z,85.82
2019-02-22T00:40:32.495Z,85.41
2019-02-22T00:43:02.816Z,85.27
2019-02-22T00:45:33.253Z,85.10
2019-02-22T00:48:03.726Z,85.23
2019-02-22T00:50:34.219Z,85.01
2019-02-22T00:53:04.544Z,84.98
2019-02-22T00:55:34.913Z,84.19
2019-02-22T00:58:05.318Z,84.56
2019-02-22T01:00:35.684Z,84.57
2019-02-22T01:03:06.008Z,84.32
2019-02-22T01:05:36.461Z,84.83
2019-02-22T01:08:06.854Z,84.76
2019-02-22T01:10:37.224Z,85.01
2019-02-22T01:13:07.554Z,83.94
2019-02-22T01:15:37.915Z,83.21
2019-02-22T01:18:08.305Z,83.51
2019-02-22T01:20:38.683Z,83.41
2019-02-22T01:23:09.012Z,83.50
2019-02-22T01:25:39.386Z,83.54
2019-02-22T01:28:09.710Z,83.40
2019-02-22T01:30:40.081Z,83.26
2019-02-22T01:33:10.474Z,83.89
2019-02-22T01:35:40.837Z,84.39
2019-02-22T01:38:11.167Z,84.62
2019-02-22T01:40:43.941Z,83.69
2019-02-22T01:43:13.630Z,84.14
2019-02-22T01:45:44.005Z,83.70
2019-02-22T01:48:14.403Z,83.28
2019-02-22T01:50:45.047Z,82.85
2019-02-22T01:53:15.441Z,82.07
2019-02-22T01:55:45.815Z,82.54
2019-02-22T01:58:16.203Z,83.18
2019-02-22T02:00:46.575Z,82.46
2019-02-22T02:03:16.909Z,82.72
2019-02-22T02:05:47.569Z,82.90
2019-02-22T02:08:18.170Z,82.51
2019-02-22T02:10:54.021Z,82.77
2019-02-22T02:13:21.040Z,83.32
2019-02-22T02:15:51.496Z,83.64
2019-02-22T02:18:22.963Z,83.37
2019-02-22T02:20:53.459Z,83.12
2019-02-22T02:23:23.766Z,83.17
2019-02-22T02:25:54.147Z,82.98
2019-02-22T02:28:24.475Z,83.03
2019-02-22T02:30:54.845Z,83.35
2019-02-22T02:33:25.171Z,82.90
2019-02-22T02:35:55.538Z,82.50
2019-02-22T02:38:25.939Z,82.72
2019-02-22T02:41:08.151Z,82.79
2019-02-22T02:43:28.342Z,82.79
2019-02-22T02:45:58.725Z,82.85
2019-02-22T02:48:29.048Z,82.61
2019-02-22T02:50:59.781Z,81.90
2019-02-22T02:53:30.176Z,82.05
2019-02-22T02:56:01.626Z,81.72
2019-02-22T02:58:32.015Z,81.89
2019-02-22T03:01:02.453Z,81.37
2019-02-22T03:03:32.916Z,80.61
2019-02-22T03:06:06.010Z,80.13
2019-02-22T03:08:36.413Z,79.95
2019-02-22T03:11:06.772Z,79.47
2019-02-22T03:13:37.101Z,79.27
2019-02-22T03:16:07.468Z,79.04
2019-02-22T03:18:37.798Z,79.92
2019-02-22T03:21:08.174Z,79.90
2019-02-22T03:23:38.487Z,79.79
2019-02-22T03:26:08.886Z,79.24
2019-02-22T03:28:39.254Z,79.36
2019-02-22T03:31:09.652Z,79.54
2019-02-22T03:33:39.972Z,79.42
2019-02-22T03:36:10.397Z,79.18
2019-02-22T03:38:40.795Z,78.83
2019-02-22T03:41:11.181Z,79.02
2019-02-22T03:43:41.489Z,79.77
2019-02-22T03:46:11.898Z,79.70
2019-02-22T03:48:42.230Z,78.56
2019-02-22T03:51:12.781Z,78.66
2019-02-22T03:53:44.812Z,79.28
2019-02-22T03:56:15.257Z,78.92
2019-02-22T03:58:46.758Z,78.90
2019-02-22T04:01:17.199Z,79.21
2019-02-22T04:03:47.600Z,79.21
2019-02-22T04:06:17.988Z,78.80
2019-02-22T04:08:48.313Z,78.65
2019-02-22T04:11:18.759Z,79.51
2019-02-22T04:13:49.081Z,79.64
2019-02-22T04:16:19.514Z,78.99
2019-02-22T04:18:49.909Z,78.39
2019-02-22T04:21:20.288Z,78.56
2019-02-22T04:23:50.649Z,78.21
2019-02-22T04:26:20.986Z,76.93
2019-02-22T04:28:52.955Z,76.48
2019-02-22T04:31:24.403Z,75.86
2019-02-22T04:33:54.737Z,75.84
2019-02-22T04:36:25.183Z,74.81
2019-02-22T04:38:55.499Z,75.24
2019-02-22T04:41:25.867Z,74.92
2019-02-22T04:43:56.266Z,74.87
2019-02-22T04:46:26.643Z,74.93
2019-02-22T04:48:56.968Z,74.64
2019-02-22T04:51:27.929Z,74.52
2019-02-22T04:53:58.229Z,74.49
2019-02-22T04:56:28.590Z,73.24
2019-02-22T04:58:58.982Z,74.03
2019-02-22T05:01:29.353Z,74.05
2019-02-22T05:03:59.677Z,73.53
2019-02-22T05:06:30.241Z,73.99
2019-02-22T05:09:00.580Z,74.21
2019-02-22T05:11:32.549Z,72.95
2019-02-22T05:14:03.218Z,73.07
2019-02-22T05:16:33.595Z,72.39
2019-02-22T05:19:03.920Z,73.11
2019-02-22T05:21:34.297Z,72.42
2019-02-22T05:24:04.623Z,70.84
2019-02-22T05:26:35.136Z,70.45
2019-02-22T05:29:05.538Z,71.89
2019-02-22T05:31:36.003Z,71.35
2019-02-22T05:34:06.332Z,72.08
2019-02-22T05:36:36.854Z,71.75
2019-02-22T05:39:18.702Z,71.72
2019-02-22T05:41:40.294Z,71.11
2019-02-22T05:44:10.704Z,69.61
2019-02-22T05:46:41.082Z,71.20
2019-02-22T05:49:11.490Z,71.29
2019-02-22T05:51:42.195Z,70.89
2019-02-22T05:54:12.595Z,71.03
2019-02-22T05:56:42.973Z,71.63
2019-02-22T05:59:13.371Z,71.17
2019-02-22T06:01:43.872Z,71.85
2019-02-22T06:04:14.214Z,72.35
2019-02-22T06:06:44.738Z,71.70
2019-02-22T06:09:15.283Z,71.87
2019-02-22T06:11:45.724Z,71.11
2019-02-22T06:14:16.077Z,70.82
2019-02-22T06:16:46.444Z,70.56
2019-02-22T06:19:16.770Z,68.94
2019-02-22T06:21:47.153Z,68.38
2019-02-22T06:24:17.514Z,69.73
2019-02-22T06:26:48.139Z,68.91
2019-02-22T06:29:18.551Z,67.51
2019-02-22T06:31:48.945Z,69.17
2019-02-22T06:34:19.326Z,68.77
2019-02-22T06:37:01.345Z,68.50
2019-02-22T06:39:21.872Z,67.77
2019-02-22T06:41:52.353Z,67.90
2019-02-22T06:44:22.835Z,67.27
2019-02-22T06:46:53.209Z,66.79
2019-02-22T06:49:23.543Z,67.56
2019-02-22T06:51:54.070Z,67.69
2019-02-22T06:54:24.402Z,66.65
2019-02-22T06:56:54.772Z,66.49
2019-02-22T06:59:25.112Z,67.47
2019-02-22T07:01:55.467Z,67.24
2019-02-22T07:04:25.795Z,67.37
2019-02-22T07:06:56.230Z,66.71
2019-02-22T07:09:26.559Z,66.52
2019-02-22T07:12:04.347Z,66.44
2019-02-22T07:14:34.676Z,66.56
2019-02-22T07:17:05.052Z,65.65
2019-02-22T07:19:35.389Z,66.43
2019-02-22T07:22:06.703Z,65.59
2019-02-22T07:24:37.035Z,65.59
2019-02-22T07:27:07.420Z,65.56
2019-02-22T07:29:37.719Z,65.52
2019-02-22T07:32:08.086Z,65.84
2019-02-22T07:34:38.422Z,65.30
2019-02-22T07:37:08.809Z,64.62
2019-02-22T07:39:39.208Z,64.52
2019-02-22T07:42:09.666Z,64.48
2019-02-22T07:44:39.997Z,64.37
2019-02-22T07:47:11.892Z,64.01
2019-02-22T07:49:42.228Z,63.38
2019-02-22T07:52:12.795Z,62.29
2019-02-22T07:54:43.114Z,61.64
2019-02-22T07:57:13.510Z,62.51
2019-02-22T07:59:43.826Z,61.01
2019-02-22T08:02:14.279Z,61.83
2019-02-22T08:04:45.492Z,59.66
2019-02-22T08:07:16.055Z,59.23
2019-02-22T08:09:46.376Z,59.99
2019-02-22T08:12:16.752Z,58.59
2019-02-22T08:14:47.135Z,58.89
2019-02-22T08:17:17.573Z,59.31
2019-02-22T08:19:47.972Z,59.35
2019-02-22T08:22:20.659Z,60.14
2019-02-22T08:24:50.451Z,59.52
2019-02-22T08:27:20.819Z,60.75
2019-02-22T08:29:52.283Z,60.41
2019-02-22T08:32:22.738Z,58.75
2019-02-22T08:34:53.062Z,59.11
2019-02-22T08:37:23.508Z,58.39
2019-02-22T08:39:58.580Z,57.68
2019-02-22T08:42:27.054Z,58.15
2019-02-22T08:44:57.376Z,58.54
2019-02-22T08:47:27.815Z,58.88
2019-02-22T08:49:58.139Z,59.12
2019-02-22T08:52:28.752Z,57.25
2019-02-22T08:54:59.142Z,58.94
2019-02-22T08:57:29.582Z,57.76
2019-02-22T08:59:59.984Z,57.75
2019-02-22T09:02:30.424Z,55.84
2019-02-22T09:05:00.743Z,55.99
2019-02-22T09:07:31.183Z,54.71
2019-02-22T09:10:01.649Z,54.96
2019-02-22T09:12:32.089Z,54.28
2019-02-22T09:15:02.557Z,55.81
2019-02-22T09:17:33.000Z,56.20
2019-02-22T09:20:03.600Z,54.14
2019-02-22T09:22:35.584Z,53.21
2019-02-22T09:25:06.520Z,53.58
2019-02-22T09:27:37.041Z,52.78
2019-02-22T09:30:10.414Z,54.48
2019-02-22T09:32:40.854Z,51.76
2019-02-22T09:35:11.540Z,51.05
2019-02-22T09:37:41.987Z,49.69
2019-02-22T09:40:14.633Z,52.19
2019-02-22T09:42:44.832Z,50.80
2019-02-22T09:45:15.178Z,50.75
2019-02-22T09:47:45.557Z,51.19
2019-02-22T09:50:16.640Z,50.70
2019-02-22T09:52:47.372Z,48.91
2019-02-22T09:55:17.692Z,48.97
2019-02-22T09:57:48.129Z,50.24
2019-02-22T10:00:18.452Z,50.51
2019-02-22T10:02:48.819Z,49.36
2019-02-22T10:05:19.167Z,47.92
2019-02-22T10:07:49.534Z,49.01
2019-02-22T10:10:19.852Z,48.13
2019-02-22T10:12:50.216Z,47.41
2019-02-22T10:15:20.673Z,47.32
2019-02-22T10:17:51.212Z,46.14
2019-02-22T10:20:21.550Z,47.39
2019-02-22T10:22:52.051Z,47.54
2019-02-22T10:25:22.378Z,48.94
2019-02-22T10:27:52.736Z,47.12
2019-02-22T10:30:23.072Z,46.03
2019-02-22T10:32:53.655Z,45.14
2019-02-22T10:35:24.049Z,44.07
2019-02-22T10:37:54.425Z,45.51
2019-02-22T10:40:24.919Z,44.63
2019-02-22T10:42:55.345Z,45.30
2019-02-22T10:45:25.742Z,45.74
2019-02-22T10:47:56.116Z,45.07
2019-02-22T10:50:26.705Z,44.17
2019-02-22T10:53:02.119Z,44.24
2019-02-22T10:55:29.489Z,44.96
2019-02-22T10:57:59.858Z,43.81
2019-02-22T11:00:30.407Z,44.72
2019-02-22T11:03:00.862Z,45.82
2019-02-22T11:05:31.249Z,45.39
2019-02-22T11:08:01.925Z,44.49
2019-02-22T11:10:32.313Z,45.15
2019-02-22T11:13:02.680Z,42.00
2019-02-22T11:15:33.176Z,42.17
2019-02-22T11:18:03.564Z,40.65
2019-02-22T11:20:33.941Z,41.40
2019-02-22T11:23:04.375Z,42.72
2019-02-22T11:25:34.782Z,43.51
2019-02-22T11:28:05.148Z,41.62
2019-02-22T11:30:36.612Z,40.09
2019-02-22T11:33:06.994Z,42.27
2019-02-22T11:35:37.336Z,41.72
2019-02-22T11:38:07.821Z,42.34
2019-02-22T11:40:38.211Z,41.83
2019-02-22T11:43:08.650Z,44.63
2019-02-22T11:45:39.044Z,40.33
2019-02-22T11:48:09.718Z,41.18
2019-02-22T11:50:40.087Z,40.79
2019-02-22T11:53:10.680Z,41.54
2019-02-22T11:55:41.522Z,39.46
2019-02-22T11:58:11.961Z,40.48
2019-02-22T12:00:42.472Z,41.39
2019-02-22T12:03:24.213Z,40.39
2019-02-22T12:05:45.039Z,41.84
2019-02-22T12:08:15.544Z,42.73
2019-02-22T12:10:45.937Z,40.27
2019-02-22T12:13:16.466Z,40.00
2019-02-22T12:15:46.861Z,40.85
2019-02-22T12:18:17.297Z,40.96
2019-02-22T12:20:47.705Z,34.09
2019-02-22T12:23:18.102Z,29.39
2019-02-22T12:25:48.411Z,29.65
2019-02-22T12:28:19.927Z,31.28
2019-02-22T12:30:50.734Z,31.83
2019-02-22T12:33:21.184Z,32.70
2019-02-22T12:35:51.571Z,31.45
2019-02-22T12:38:22.022Z,28.23
2019-02-22T12:40:52.361Z,26.06
2019-02-22T12:43:22.830Z,33.84
2019-02-22T12:45:53.178Z,34.44
2019-02-22T12:48:23.540Z,37.54
2019-02-22T12:50:53.941Z,33.07
2019-02-22T12:53:24.582Z,28.01
2019-02-22T12:55:54.933Z,23.88
2019-02-22T12:58:25.317Z,22.40
2019-02-22T13:00:55.653Z,20.87
2019-02-22T13:03:26.115Z,21.55
2019-02-22T13:05:56.659Z,23.15
2019-02-22T13:08:27.111Z,25.44
2019-02-22T13:17:42.083Z,30.37
2019-02-22T13:20:12.456Z,27.36
2019-02-22T13:22:42.866Z,23.75
2019-02-22T13:25:13.317Z,21.36
2019-02-22T13:27:43.721Z,19.75
2019-02-22T13:30:15.590Z,20.61
2019-02-22T13:32:46.028Z,21.59
2019-02-22T13:35:16.551Z,25.41
2019-02-22T13:37:47.218Z,28.89
2019-02-22T13:40:18.465Z,31.40
2019-02-22T13:42:48.794Z,34.13
2019-02-22T13:45:26.677Z,34.71
2019-02-22T13:47:51.348Z,34.89
2019-02-22T13:50:21.947Z,34.65
2019-02-22T13:52:52.349Z,35.87
2019-02-22T13:55:23.056Z,34.94
2019-02-22T13:57:53.464Z,36.17
2019-02-22T14:00:23.842Z,36.31
2019-02-22T14:02:54.183Z,36.29
2019-02-22T14:05:24.616Z,36.42
2019-02-22T14:07:56.136Z,37.28
2019-02-22T14:10:26.860Z,35.32
2019-02-22T14:12:57.258Z,36.41
2019-02-22T14:15:37.413Z,37.05
2019-02-22T14:17:59.878Z,36.97
2019-02-22T14:20:30.309Z,37.18
2019-02-22T14:23:03.401Z,36.35
2019-02-22T14:25:32.916Z,36.41
2019-02-22T14:28:03.317Z,38.02
2019-02-22T14:30:33.800Z,36.64
2019-02-22T14:33:04.200Z,35.51
2019-02-22T14:35:34.675Z,35.79
2019-02-22T14:38:05.183Z,37.67
2019-02-22T14:40:35.629Z,35.39
2019-02-22T14:43:16.179Z,37.24
2019-02-22T14:45:48.554Z,36.02
2019-02-22T14:48:10.418Z,35.93
2019-02-22T14:50:40.869Z,37.20
2019-02-22T14:53:19.041Z,36.65
2019-02-22T14:55:43.541Z,35.43
2019-02-22T14:58:14.123Z,35.56
2019-02-22T15:00:44.500Z,35.97
2019-02-22T15:03:14.899Z,36.99
2019-02-22T15:05:45.377Z,38.53
2019-02-22T15:08:15.857Z,38.14
2019-02-22T15:10:46.436Z,38.01
2019-02-22T15:13:17.028Z,39.60
2019-02-22T15:16:03.797Z,37.43
2019-02-22T15:18:33.600Z,38.11
2019-02-22T15:21:04.198Z,37.17
2019-02-22T15:23:34.741Z,37.56
2019-02-22T15:26:05.193Z,36.83
2019-02-22T15:28:35.738Z,37.42
2019-02-22T15:31:06.264Z,37.22
2019-02-22T15:33:36.674Z,37.61
2019-02-22T15:36:08.180Z,38.71
2019-02-22T15:38:38.653Z,37.76
2019-02-22T15:41:10.064Z,39.19
2019-02-22T15:43:41.733Z,40.49
2019-02-22T15:46:12.636Z,40.67
2019-02-22T15:48:43.135Z,39.30
2019-02-22T15:51:14.177Z,38.57
2019-02-22T15:53:44.657Z,39.92
2019-02-22T15:56:15.466Z,39.31
2019-02-22T15:58:45.877Z,40.40
2019-02-22T16:01:16.420Z,40.75
2019-02-22T16:03:57.672Z,41.26
2019-02-22T16:06:28.059Z,41.79
2019-02-22T16:09:00.422Z,41.65
2019-02-22T16:11:32.620Z,42.70
2019-02-22T16:14:02.968Z,42.51
2019-02-22T16:16:33.563Z,42.88
2019-02-22T16:19:04.149Z,43.29
2019-02-22T16:21:34.631Z,42.77
2019-02-22T16:24:04.998Z,43.82
2019-02-22T16:26:35.474Z,45.17
2019-02-22T16:29:05.887Z,45.77
2019-02-22T16:31:36.352Z,45.63
2019-02-22T16:34:06.776Z,44.96
2019-02-22T16:36:37.224Z,45.38
2019-02-22T16:39:07.714Z,47.12
2019-02-22T16:41:39.706Z,46.06
2019-02-22T16:44:10.224Z,46.02
2019-02-22T16:46:40.750Z,47.07
2019-02-22T16:49:11.192Z,47.87
2019-02-22T16:51:41.716Z,48.59
2019-02-22T16:54:12.076Z,48.82
2019-02-22T16:56:42.494Z,48.25
2019-02-22T16:59:15.110Z,49.98
2019-02-22T17:01:45.032Z,50.00
2019-02-22T17:04:15.375Z,49.28
2019-02-22T17:06:45.782Z,49.10
2019-02-22T17:09:16.267Z,49.52
2019-02-22T17:11:46.703Z,49.63
2019-02-22T17:14:17.404Z,49.86
2019-02-22T17:16:48.021Z,49.89
2019-02-22T17:19:18.482Z,49.67
2019-02-22T17:21:49.040Z,50.35
2019-02-22T17:24:19.470Z,50.84
2019-02-22T17:26:49.870Z,52.11
2019-02-22T17:29:20.224Z,51.97
2019-02-22T17:31:50.681Z,51.42
2019-02-22T17:34:21.098Z,52.18
2019-02-22T17:36:51.630Z,51.49
2019-02-22T17:39:21.978Z,52.96
2019-02-22T17:41:52.524Z,51.99
2019-02-22T17:44:22.937Z,51.93
2019-02-22T17:46:57.744Z,52.51
2019-02-22T17:49:25.518Z,51.35
2019-02-22T17:51:55.962Z,51.79
2019-02-22T17:54:26.384Z,53.01
2019-02-22T17:56:56.865Z,53.83
2019-02-22T17:59:27.297Z,53.08
2019-02-22T18:01:57.749Z,52.66
2019-02-22T18:04:28.175Z,52.89
2019-02-22T18:06:58.574Z,52.73
2019-02-22T18:09:28.979Z,53.42
2019-02-22T18:11:59.362Z,53.46
2019-02-22T18:14:30.775Z,54.15
2019-02-22T18:17:08.533Z,53.43
2019-02-22T18:19:33.282Z,53.44
2019-02-22T18:22:03.757Z,53.57
2019-02-22T18:24:34.166Z,53.30
2019-02-22T18:27:04.620Z,53.45
2019-02-22T18:29:35.793Z,53.86
2019-02-22T18:32:06.443Z,54.74
2019-02-22T18:34:36.880Z,54.94
2019-02-22T18:37:08.438Z,54.98
2019-02-22T18:39:38.797Z,55.81
2019-02-22T18:42:09.381Z,56.34
2019-02-22T18:44:39.813Z,54.95
2019-02-22T18:47:18.968Z,54.54
2019-02-22T18:49:42.459Z,54.83
2019-02-22T18:52:13.010Z,55.65
2019-02-22T18:54:46.092Z,55.29
2019-02-22T18:57:16.111Z,57.10
2019-02-22T18:59:46.466Z,56.87
2019-02-22T19:02:17.070Z,55.73
2019-02-22T19:04:47.519Z,56.09
2019-02-22T19:07:18.032Z,56.18
2019-02-22T19:09:48.465Z,56.82
2019-02-22T19:12:18.940Z,56.33
2019-02-22T19:14:49.375Z,56.13
2019-02-22T19:17:29.921Z,56.16
2019-02-22T19:19:52.005Z,56.57
2019-02-22T19:22:22.484Z,57.71
2019-02-22T19:24:52.903Z,57.08
2019-02-22T19:27:23.327Z,57.93
2019-02-22T19:29:53.753Z,57.63
2019-02-22T19:32:24.230Z,59.01
2019-02-22T19:34:54.728Z,58.56
2019-02-22T19:37:25.154Z,59.14
2019-02-22T19:39:55.638Z,60.12
2019-02-22T19:42:26.034Z,60.53
2019-02-22T19:44:56.381Z,61.33
2019-02-22T19:47:27.099Z,61.41
2019-02-22T19:49:57.531Z,62.03
2019-02-22T19:52:27.934Z,62.13
2019-02-22T19:54:58.361Z,62.02
2019-02-22T19:57:29.177Z,62.05
2019-02-22T19:59:59.550Z,62.52
2019-02-22T20:02:30.111Z,63.09
2019-02-22T20:05:00.582Z,62.06
2019-02-22T20:07:31.056Z,62.06
2019-02-22T20:10:01.489Z,61.52
2019-02-22T20:12:33.727Z,62.19
2019-02-22T20:15:05.821Z,62.45
2019-02-22T20:17:37.399Z,63.01
2019-02-22T20:20:12.983Z,62.36
2019-02-22T20:22:43.466Z,64.11
2019-02-22T20:25:13.909Z,64.20
2019-02-22T20:27:44.468Z,63.68
2019-02-22T20:30:19.057Z,64.70
2019-02-22T20:32:49.516Z,64.74
2019-02-22T20:35:27.798Z,63.86
2019-02-22T20:37:58.292Z,62.87
2019-02-22T20:40:28.719Z,62.87
2019-02-22T20:42:59.207Z,62.98
2019-02-22T20:45:29.630Z,62.89
2019-02-22T20:48:05.081Z,63.38
2019-02-22T20:50:32.164Z,63.78
2019-02-22T20:53:02.630Z,64.37
2019-02-22T20:55:33.061Z,63.98
2019-02-22T20:58:03.903Z,64.46
2019-02-22T21:00:34.346Z,65.46
2019-02-22T21:03:04.879Z,65.40
2019-02-22T21:05:35.386Z,65.22
2019-02-22T21:08:05.852Z,66.36
2019-02-22T21:10:36.348Z,65.92
2019-02-22T21:13:06.834Z,66.02
2019-02-22T21:15:37.298Z,66.94
2019-02-22T21:18:15.853Z,67.04
2019-02-22T21:20:39.851Z,67.78
2019-02-22T21:23:10.587Z,68.38
2019-02-22T21:25:41.034Z,68.39
2019-02-22T21:28:11.437Z,68.68
2019-02-22T21:30:41.859Z,69.57
2019-02-22T21:33:12.317Z,69.51
2019-02-22T21:35:42.736Z,69.01
2019-02-22T21:38:13.241Z,69.33
2019-02-22T21:40:43.686Z,70.63
2019-02-22T21:43:14.214Z,70.47
2019-02-22T21:45:45.629Z,70.81
2019-02-22T21:48:26.951Z,70.63
2019-02-22T21:50:48.178Z,70.99
2019-02-22T21:53:18.638Z,72.09
2019-02-22T21:55:48.991Z,71.32
2019-02-22T21:58:19.844Z,70.63
2019-02-22T22:00:50.269Z,71.21
2019-02-22T22:03:21.847Z,71.17
2019-02-22T22:05:52.201Z,70.56
2019-02-22T22:08:22.699Z,69.88
2019-02-22T22:10:53.045Z,68.84
2019-02-22T22:13:23.502Z,67.99
2019-02-22T22:15:53.864Z,68.20
2019-02-22T22:18:24.247Z,67.56
2019-02-22T22:20:54.613Z,66.74
2019-02-22T22:23:25.003Z,66.69
2019-02-22T22:25:55.357Z,65.92
2019-02-22T22:28:25.745Z,66.09
2019-02-22T22:30:56.098Z,66.75
2019-02-22T22:33:26.565Z,65.74
2019-02-22T22:35:58.072Z,65.17
2019-02-22T22:38:28.726Z,65.32
2019-02-22T22:40:59.139Z,65.00
2019-02-22T22:43:29.785Z,65.37
2019-02-22T22:46:00.295Z,65.77
2019-02-22T22:48:30.881Z,65.21
2019-02-22T22:51:01.309Z,65.50
2019-02-22T22:53:31.765Z,66.77
2019-02-22T22:56:02.178Z,67.48
2019-02-22T22:58:32.942Z,67.53
2019-02-22T23:01:05.543Z,67.18
2019-02-22T23:03:36.471Z,66.00
2019-02-22T23:06:07.041Z,66.47
2019-02-22T23:08:37.504Z,66.63
2019-02-22T23:11:07.912Z,66.45
2019-02-22T23:13:38.660Z,66.55
2019-02-22T23:16:09.214Z,66.53
2019-02-22T23:18:39.757Z,66.75
2019-02-22T23:21:10.245Z,67.85
2019-02-22T23:23:40.734Z,67.96
2019-02-22T23:26:11.157Z,67.98
2019-02-22T23:28:41.767Z,68.12
2019-02-22T23:31:13.184Z,69.32
2019-02-22T23:33:43.802Z,69.34
2019-02-22T23:36:14.161Z,69.51
2019-02-22T23:38:44.621Z,70.94
2019-02-22T23:41:15.048Z,71.28
2019-02-22T23:43:45.526Z,71.25
2019-02-22T23:46:15.896Z,71.30
2019-02-22T23:48:46.303Z,71.47
2019-02-22T23:51:16.800Z,71.21
2019-02-22T23:53:47.212Z,71.48
2019-02-22T23:56:17.643Z,71.51
2019-02-22T23:58:48.507Z,71.40
